Time;durP1;ratioP1;P1;durP2;ratioP2;P2;SDS_P1;SDS_P2;PMS_P1;PMS_P2;Temp;Humidity;BMP_temperature;BMP_pressure;BME280_temperature;BME280_humidity;BME280_pressure;Samples;Min_cycle;Max_cycle;Signal;HPM_P1;HPM_P2
2023/07/18 00:00:40;;;;;;;5.68;1.98;;;;;;;15.24;72.63;102135.88;7371643;19;19927;-66
2023/07/18 00:03:09;;;;;;;7.97;2.20;;;;;;;15.24;71.95;102129.59;7374043;19;19919;-66
2023/07/18 00:05:39;;;;;;;6.05;2.50;;;;;;;15.23;72.07;102128.75;7372582;19;20568;-66
2023/07/18 00:08:08;;;;;;;5.03;2.15;;;;;;;15.21;71.87;102130.78;7372504;19;19946;-66
2023/07/18 00:10:37;;;;;;;5.40;1.95;;;;;;;15.23;72.39;102131.44;7373142;19;19922;-66
2023/07/18 00:13:10;;;;;;;10.10;2.15;;;;;;;15.23;72.42;102127.91;7378006;19;19929;-66
2023/07/18 00:15:38;;;;;;;4.82;2.20;;;;;;;15.19;72.24;102127.41;7374077;19;19989;-66
2023/07/18 00:18:08;;;;;;;6.13;2.03;;;;;;;15.14;72.39;102124.41;7370085;19;20086;-66
2023/07/18 00:20:37;;;;;;;7.13;2.15;;;;;;;15.11;72.39;102119.28;7374580;19;19930;-67
2023/07/18 00:23:09;;;;;;;5.63;2.10;;;;;;;15.09;72.39;102120.50;7373071;19;20000;-68
2023/07/18 00:25:39;;;;;;;5.63;2.13;;;;;;;15.05;72.77;102124.59;7375461;19;19915;-66
2023/07/18 00:28:10;;;;;;;6.88;2.03;;;;;;;15.03;72.62;102124.75;7377076;19;20406;-66
2023/07/18 00:30:39;;;;;;;7.90;2.30;;;;;;;14.99;73.03;102121.56;7374748;19;19980;-66
2023/07/18 00:33:08;;;;;;;13.20;2.40;;;;;;;14.99;72.86;102118.84;7378660;19;19992;-67
2023/07/18 00:35:37;;;;;;;5.05;1.83;;;;;;;14.98;72.76;102111.72;7374918;19;19931;-66
2023/07/18 00:38:05;;;;;;;5.60;2.33;;;;;;;15.00;73.08;102116.97;7374974;19;19932;-66
2023/07/18 00:40:34;;;;;;;7.55;2.25;;;;;;;14.99;73.30;102120.72;7377290;19;19942;-66
2023/07/18 00:43:03;;;;;;;7.25;2.05;;;;;;;14.97;73.41;102120.88;7375285;19;20280;-66
2023/07/18 00:45:34;;;;;;;5.28;1.83;;;;;;;14.98;73.38;102119.84;7377429;19;19927;-66
2023/07/18 00:48:03;;;;;;;7.53;2.13;;;;;;;14.97;73.18;102120.06;7377513;19;20275;-66
2023/07/18 00:50:32;;;;;;;6.78;2.08;;;;;;;14.92;73.63;102120.56;7376316;19;19934;-65
2023/07/18 00:53:01;;;;;;;6.05;2.10;;;;;;;14.88;73.88;102121.09;7376872;19;19930;-66
2023/07/18 00:55:30;;;;;;;8.27;2.17;;;;;;;14.85;73.36;102122.28;7375269;19;19974;-66
2023/07/18 00:58:00;;;;;;;6.43;2.10;;;;;;;14.83;73.64;102126.19;7374836;19;19947;-66
2023/07/18 01:00:29;;;;;;;3.80;2.65;;;;;;;14.81;74.06;102120.09;7375829;19;19939;-66
2023/07/18 01:03:00;;;;;;;6.22;1.77;;;;;;;14.79;74.50;102114.00;7378530;19;19922;-66
2023/07/18 01:05:29;;;;;;;7.72;2.03;;;;;;;14.78;74.19;102113.16;7376165;19;19929;-66
2023/07/18 01:07:57;;;;;;;6.15;1.95;;;;;;;14.78;74.14;102113.16;7370991;19;19959;-66
2023/07/18 01:10:27;;;;;;;5.97;2.25;;;;;;;14.77;74.37;102107.88;7374806;19;19919;-66
2023/07/18 01:12:57;;;;;;;6.15;2.00;;;;;;;14.72;74.59;102107.56;7374635;19;19923;-65
2023/07/18 01:15:28;;;;;;;6.38;2.45;;;;;;;14.71;74.18;102111.31;7376328;19;20302;-66
2023/07/18 01:18:02;;;;;;;8.85;2.70;;;;;;;14.70;74.84;102099.63;7375410;19;19939;-66
2023/07/18 01:20:33;;;;;;;8.00;2.42;;;;;;;14.69;74.25;102110.63;7375737;19;19942;-66
2023/07/18 01:23:05;;;;;;;8.35;2.88;;;;;;;14.65;74.72;102106.56;7376390;19;19931;-66
2023/07/18 01:25:34;;;;;;;5.47;2.30;;;;;;;14.57;74.94;102107.44;7371343;19;19930;-66
2023/07/18 01:28:03;;;;;;;9.40;2.47;;;;;;;14.53;74.74;102103.38;7373127;19;19923;-65
2023/07/18 01:30:33;;;;;;;10.15;2.90;;;;;;;14.47;75.14;102099.50;7370407;19;19914;-66
2023/07/18 01:33:02;;;;;;;7.65;3.03;;;;;;;14.39;74.88;102094.09;7374766;19;20283;-66
2023/07/18 01:35:31;;;;;;;13.00;3.15;;;;;;;14.34;75.56;102093.72;7371574;19;19942;-66
2023/07/18 01:38:00;;;;;;;8.75;2.60;;;;;;;14.30;75.60;102107.78;7371637;19;19943;-65
2023/07/18 01:40:32;;;;;;;7.43;3.22;;;;;;;14.26;75.79;102096.44;7372920;19;19918;-65
2023/07/18 01:43:00;;;;;;;7.15;2.90;;;;;;;14.27;75.59;102103.56;7374374;19;20555;-66
2023/07/18 01:45:30;;;;;;;10.07;3.13;;;;;;;14.23;75.79;102107.66;7371343;19;19982;-65
2023/07/18 01:48:02;;;;;;;8.55;2.70;;;;;;;14.22;75.54;102102.38;7373628;19;20450;-67
2023/07/18 01:50:30;;;;;;;5.43;2.53;;;;;;;14.16;75.86;102100.34;7370937;19;19957;-67
2023/07/18 01:52:59;;;;;;;7.95;3.20;;;;;;;14.08;75.81;102099.34;7373765;19;19922;-67
2023/07/18 01:55:28;;;;;;;14.68;3.83;;;;;;;14.05;75.94;102104.25;7372400;19;20289;-68
2023/07/18 01:57:59;;;;;;;7.60;2.67;;;;;;;14.00;76.47;102095.78;7372892;19;19965;-66
2023/07/18 02:00:28;;;;;;;8.93;3.38;;;;;;;13.96;76.20;102102.56;7372848;19;19951;-68
2023/07/18 02:02:56;;;;;;;7.03;3.38;;;;;;;13.97;76.35;102090.72;7373392;19;20396;-68
2023/07/18 02:05:27;;;;;;;9.15;3.25;;;;;;;13.95;76.26;102093.59;7365779;19;19957;-66
2023/07/18 02:07:57;;;;;;;8.13;3.30;;;;;;;13.93;76.37;102089.38;7370931;19;20734;-65
2023/07/18 02:10:27;;;;;;;6.60;2.72;;;;;;;13.90;76.70;102086.97;7370770;19;20362;-67
2023/07/18 02:13:01;;;;;;;9.32;3.10;;;;;;;13.90;76.97;102089.69;7371375;19;19993;-67
2023/07/18 02:15:31;;;;;;;9.32;3.20;;;;;;;13.87;76.42;102084.59;7373506;19;19927;-67
2023/07/18 02:17:59;;;;;;;6.55;2.60;;;;;;;13.85;76.96;102083.94;7373632;19;19933;-65
2023/07/18 02:20:28;;;;;;;7.45;3.47;;;;;;;13.83;76.62;102089.53;7376631;19;19918;-67
2023/07/18 02:23:00;;;;;;;5.97;2.47;;;;;;;13.80;76.69;102089.88;7372090;19;20348;-68
2023/07/18 02:25:29;;;;;;;8.40;2.55;;;;;;;13.76;76.93;102076.81;7370689;19;20574;-65
2023/07/18 02:28:00;;;;;;;7.93;2.63;;;;;;;13.72;77.61;102078.19;7372932;19;21265;-67
2023/07/18 02:30:28;;;;;;;11.90;3.10;;;;;;;13.75;77.38;102080.53;7373749;19;19936;-66
2023/07/18 02:32:57;;;;;;;7.55;2.63;;;;;;;13.76;77.13;102079.53;7373456;19;19982;-67
2023/07/18 02:35:26;;;;;;;5.85;2.58;;;;;;;13.76;77.08;102088.50;7378949;19;20534;-67
2023/07/18 02:37:54;;;;;;;8.80;3.03;;;;;;;13.76;77.29;102079.53;7376191;19;19986;-67
2023/07/18 02:40:23;;;;;;;10.02;2.85;;;;;;;13.74;77.61;102076.13;7377814;19;19933;-67
2023/07/18 02:42:52;;;;;;;5.32;2.78;;;;;;;13.74;77.50;102087.81;7377713;19;19951;-67
2023/07/18 02:45:23;;;;;;;9.15;3.20;;;;;;;13.74;77.36;102076.13;7374968;19;19959;-67
2023/07/18 02:47:52;;;;;;;7.47;2.63;;;;;;;13.74;77.63;102085.09;7378872;19;19939;-67
2023/07/18 02:50:21;;;;;;;7.03;2.95;;;;;;;13.76;77.77;102077.69;7374778;19;19923;-67
2023/07/18 02:52:49;;;;;;;7.80;2.85;;;;;;;13.80;77.77;102089.00;7367701;19;19927;-67
2023/07/18 02:55:18;;;;;;;6.93;2.42;;;;;;;13.80;77.49;102084.44;7371134;19;19930;-67
2023/07/18 02:57:46;;;;;;;10.20;2.78;;;;;;;13.82;78.05;102089.69;7362599;19;19919;-67
2023/07/18 03:00:25;;;;;;;8.90;2.58;;;;;;;13.84;77.90;102090.38;7375538;19;19926;-67
2023/07/18 03:02:57;;;;;;;9.90;3.10;;;;;;;13.84;78.27;102076.81;7377137;19;19970;-67
2023/07/18 03:05:27;;;;;;;11.70;3.03;;;;;;;13.85;77.99;102075.81;7377554;19;20373;-67
2023/07/18 03:07:57;;;;;;;6.88;3.05;;;;;;;13.87;78.09;102071.91;7379170;19;21078;-67
2023/07/18 03:10:26;;;;;;;7.25;2.65;;;;;;;13.88;78.02;102076.31;7378460;19;20385;-68
2023/07/18 03:12:55;;;;;;;11.57;2.65;;;;;;;13.89;78.20;102077.19;7376581;19;20291;-65
2023/07/18 03:15:24;;;;;;;11.10;2.83;;;;;;;13.90;77.94;102079.69;7378225;19;19932;-65
2023/07/18 03:17:56;;;;;;;7.22;2.47;;;;;;;13.93;78.36;102081.22;7376163;19;19919;-66
2023/07/18 03:20:25;;;;;;;8.85;2.60;;;;;;;13.89;78.67;102080.69;7377988;19;19943;-66
2023/07/18 03:22:53;;;;;;;9.65;2.58;;;;;;;13.88;78.10;102080.88;7377963;19;19943;-66
2023/07/18 03:25:22;;;;;;;6.28;2.53;;;;;;;13.85;78.13;102079.34;7376048;19;19926;-65
2023/07/18 03:27:51;;;;;;;9.20;2.95;;;;;;;13.84;77.95;102082.25;7376652;19;19963;-66
2023/07/18 03:30:21;;;;;;;7.38;3.58;;;;;;;13.79;78.49;102079.19;7377965;19;22419;-66
2023/07/18 03:32:51;;;;;;;7.65;2.70;;;;;;;13.76;78.30;102074.97;7376918;19;19929;-66
2023/07/18 03:35:22;;;;;;;8.30;2.90;;;;;;;13.73;78.39;102079.84;7378517;19;19929;-66
2023/07/18 03:37:50;;;;;;;6.18;2.78;;;;;;;13.70;78.82;102081.03;7374278;19;19957;-66
2023/07/18 03:40:19;;;;;;;8.93;3.20;;;;;;;13.70;78.44;102086.47;7378466;19;19919;-68
2023/07/18 03:42:48;;;;;;;5.57;2.50;;;;;;;13.69;78.42;102087.47;7374601;19;20001;-65
2023/07/18 03:45:17;;;;;;;12.80;3.63;;;;;;;13.67;78.62;102086.81;7374772;19;19926;-65
2023/07/18 03:47:46;;;;;;;7.95;3.20;;;;;;;13.68;78.59;102085.78;7378970;19;19951;-66
2023/07/18 03:50:17;;;;;;;9.15;3.45;;;;;;;13.68;79.07;102088.47;7374234;19;19966;-66
2023/07/18 03:52:48;;;;;;;6.78;2.90;;;;;;;13.69;79.38;102087.47;7375316;19;20012;-65
2023/07/18 03:55:17;;;;;;;8.57;3.08;;;;;;;13.70;79.03;102088.31;7376690;19;20295;-65
2023/07/18 03:57:46;;;;;;;9.30;2.58;;;;;;;13.69;78.86;102089.31;7377445;19;20331;-66
2023/07/18 04:00:17;;;;;;;14.65;3.40;;;;;;;13.66;78.98;102081.56;7378243;19;19982;-66
2023/07/18 04:02:47;;;;;;;7.88;2.90;;;;;;;13.65;78.56;102094.25;7381277;19;19918;-66
2023/07/18 04:05:17;;;;;;;8.15;3.13;;;;;;;13.65;78.69;102088.81;7373713;19;19926;-66
2023/07/18 04:07:49;;;;;;;9.20;2.92;;;;;;;13.61;78.89;102096.44;7377374;19;20879;-66
2023/07/18 04:10:17;;;;;;;6.00;2.33;;;;;;;13.60;79.07;102089.31;7376778;19;20402;-66
2023/07/18 04:12:46;;;;;;;7.72;3.30;;;;;;;13.61;79.09;102090.16;7378670;19;19936;-65
2023/07/18 04:15:17;;;;;;;7.57;3.15;;;;;;;13.60;79.38;102088.47;7377733;19;19934;-66
2023/07/18 04:17:45;;;;;;;7.18;3.03;;;;;;;13.61;79.17;102090.16;7374703;19;19926;-66
2023/07/18 04:20:19;;;;;;;8.35;2.80;;;;;;;13.60;78.89;102086.63;7378045;19;19963;-67
2023/07/18 04:22:51;;;;;;;6.72;2.88;;;;;;;13.61;79.12;102093.72;7374198;19;19929;-67
2023/07/18 04:25:20;;;;;;;9.65;3.45;;;;;;;13.63;79.10;102091.69;7375188;19;19922;-66
2023/07/18 04:27:48;;;;;;;8.73;2.97;;;;;;;13.64;78.98;102096.09;7373383;19;19990;-66
2023/07/18 04:30:17;;;;;;;11.10;2.90;;;;;;;13.64;79.15;102093.38;7374724;19;19922;-66
2023/07/18 04:32:46;;;;;;;9.60;2.42;;;;;;;13.66;78.78;102095.94;7374637;19;19989;-66
2023/07/18 04:35:15;;;;;;;4.25;2.60;;;;;;;13.67;79.15;102100.34;7375919;19;19972;-66
2023/07/18 04:37:43;;;;;;;8.32;3.13;;;;;;;13.67;78.89;102100.34;7376074;19;20719;-66
2023/07/18 04:40:15;;;;;;;9.48;3.25;;;;;;;13.68;79.31;102095.78;7376475;19;19922;-67
2023/07/18 04:42:44;;;;;;;8.32;3.30;;;;;;;13.70;79.19;102102.72;7376016;19;19919;-66
2023/07/18 04:45:13;;;;;;;8.48;3.20;;;;;;;13.69;78.98;102087.47;7376304;19;19930;-66
2023/07/18 04:47:41;;;;;;;9.55;3.45;;;;;;;13.71;79.19;102084.59;7375442;19;19922;-66
2023/07/18 04:50:11;;;;;;;7.28;3.05;;;;;;;13.74;78.99;102086.97;7375506;19;19978;-66
2023/07/18 04:52:40;;;;;;;8.77;2.80;;;;;;;13.79;79.13;102090.03;7376165;19;20016;-66
2023/07/18 04:55:10;;;;;;;7.93;3.55;;;;;;;13.81;79.32;102091.53;7374543;19;19952;-65
2023/07/18 04:57:41;;;;;;;9.15;3.70;;;;;;;13.84;79.30;102085.81;7377857;19;19926;-67
2023/07/18 05:00:12;;;;;;;7.88;3.28;;;;;;;13.88;79.28;102086.31;7369955;19;19930;-66
2023/07/18 05:02:41;;;;;;;8.15;3.25;;;;;;;13.92;78.83;102091.22;7376967;19;19922;-66
2023/07/18 05:05:10;;;;;;;7.85;3.22;;;;;;;13.91;79.07;102084.09;7373250;19;19922;-67
2023/07/18 05:07:41;;;;;;;5.80;2.63;;;;;;;13.95;78.81;102087.31;7371841;19;22677;-66
2023/07/18 05:10:10;;;;;;;6.90;2.95;;;;;;;13.96;79.09;102089.00;7372091;19;20350;-66
2023/07/18 05:12:42;;;;;;;4.78;2.90;;;;;;;14.00;78.98;102087.66;7375213;19;19930;-66
2023/07/18 05:15:12;;;;;;;5.55;3.28;;;;;;;14.01;78.52;102089.34;7378411;19;19926;-66
2023/07/18 05:17:40;;;;;;;8.82;3.03;;;;;;;14.00;78.87;102087.66;7373085;19;19922;-66
2023/07/18 05:20:11;;;;;;;9.82;3.25;;;;;;;14.04;78.94;102091.72;7376084;19;19926;-66
2023/07/18 05:22:41;;;;;;;8.45;2.92;;;;;;;14.07;78.80;102092.22;7371068;19;19919;-66
2023/07/18 05:25:12;;;;;;;6.65;2.30;;;;;;;14.11;79.25;102097.31;7371819;19;20609;-66
2023/07/18 05:27:44;;;;;;;11.35;3.45;;;;;;;14.14;79.10;102088.84;7373339;19;19939;-67
2023/07/18 05:30:16;;;;;;;;;;;;;;;14.02;80.58;102091.06;7374880;19;19926;-66
2023/07/18 05:32:46;;;;;;;9.15;2.78;;;;;;;14.18;78.81;102093.75;7375427;19;20344;-66
2023/07/18 05:35:16;;;;;;;8.18;2.58;;;;;;;14.24;78.59;102093.06;7375528;19;19942;-66
2023/07/18 05:37:46;;;;;;;7.75;2.80;;;;;;;14.27;78.77;102094.59;7372930;19;19965;-66
2023/07/18 05:40:15;;;;;;;8.65;2.70;;;;;;;14.32;78.67;102095.78;7374117;19;19926;-67
2023/07/18 05:42:47;;;;;;;8.10;2.95;;;;;;;14.38;79.19;102095.09;7376167;19;20321;-65
2023/07/18 05:45:15;;;;;;;8.40;3.15;;;;;;;14.42;78.91;102090.19;7370752;19;20257;-66
2023/07/18 05:47:44;;;;;;;7.05;2.47;;;;;;;14.47;78.49;102094.06;7366131;19;20607;-66
2023/07/18 05:50:13;;;;;;;6.90;3.08;;;;;;;14.53;78.70;102096.09;7355002;19;19923;-66
2023/07/18 05:52:41;;;;;;;9.50;2.90;;;;;;;14.61;78.72;102095.22;7354304;19;19922;-65
2023/07/18 05:55:13;;;;;;;8.50;3.10;;;;;;;14.69;78.57;102091.66;7363972;19;19931;-65
2023/07/18 05:57:42;;;;;;;;;;;;;;;14.60;80.66;102101.66;7352763;19;19986;-66
2023/07/18 06:00:14;;;;;;;5.25;2.40;;;;;;;14.77;78.76;102099.75;7289781;19;19922;-68
2023/07/18 06:02:43;;;;;;;6.85;2.97;;;;;;;14.87;78.31;102093.13;7373532;19;19927;-68
2023/07/18 06:05:11;;;;;;;5.38;2.47;;;;;;;14.98;78.25;102091.88;7372417;19;20027;-68
2023/07/18 06:07:40;;;;;;;8.68;3.45;;;;;;;15.13;78.39;102094.69;7368963;19;19962;-67
2023/07/18 06:10:10;;;;;;;10.32;3.08;;;;;;;15.27;77.75;102097.50;7368513;19;19915;-66
2023/07/18 06:12:38;;;;;;;10.02;3.25;;;;;;;15.35;77.56;102094.75;7373604;19;19934;-67
2023/07/18 06:15:08;;;;;;;11.25;3.17;;;;;;;15.43;77.81;102097.44;7380985;19;19940;-66
2023/07/18 06:17:40;;;;;;;7.40;3.15;;;;;;;15.51;78.50;102096.56;7378223;19;19927;-66
2023/07/18 06:20:12;;;;;;;11.48;3.35;;;;;;;15.57;77.64;102100.44;7368917;19;19922;-67
2023/07/18 06:22:41;;;;;;;8.48;3.20;;;;;;;15.64;78.34;102104.09;7362040;19;19918;-67
2023/07/18 06:25:11;;;;;;;8.52;3.60;;;;;;;15.69;77.38;102097.13;7345620;19;20657;-66
2023/07/18 06:27:40;;;;;;;12.63;3.45;;;;;;;15.76;77.31;102094.50;7361891;19;20004;-66
2023/07/18 06:30:11;;;;;;;7.32;3.65;;;;;;;15.80;78.07;102109.41;7369464;19;19923;-68
2023/07/18 06:32:42;;;;;;;7.93;3.63;;;;;;;15.80;78.04;102115.69;7373277;19;19922;-66
2023/07/18 06:35:12;;;;;;;14.07;3.60;;;;;;;15.83;77.81;102104.47;7374305;19;19937;-65
2023/07/18 06:37:41;;;;;;;12.35;3.30;;;;;;;15.85;77.97;102105.13;7379166;19;19915;-66
2023/07/18 06:40:13;;;;;;;9.52;2.60;;;;;;;15.87;78.39;102110.41;7377751;19;20308;-66
2023/07/18 06:42:41;;;;;;;;;;;;;;;15.79;79.78;102116.72;7380199;19;19954;-66
2023/07/18 06:45:11;;;;;;;6.38;2.88;;;;;;;15.93;77.70;102109.66;7380700;19;19922;-66
2023/07/18 06:47:43;;;;;;;10.23;3.47;;;;;;;16.00;77.39;102109.78;7377842;19;19961;-66
2023/07/18 06:50:13;;;;;;;8.20;3.13;;;;;;;16.04;77.10;102122.00;7377460;19;19966;-66
2023/07/18 06:52:42;;;;;;;6.75;3.17;;;;;;;16.11;76.89;102120.22;7379463;19;19927;-66
2023/07/18 06:55:11;;;;;;;13.35;3.90;;;;;;;16.14;77.09;102128.00;7378845;19;19972;-66
2023/07/18 06:57:40;;;;;;;9.98;3.00;;;;;;;16.19;76.67;102114.72;7379144;19;19939;-66
2023/07/18 07:00:11;;;;;;;9.13;3.00;;;;;;;16.26;76.82;102121.13;7379579;19;19925;-67
2023/07/18 07:02:43;;;;;;;9.60;3.33;;;;;;;16.38;77.22;102124.25;7383939;19;21408;-66
2023/07/18 07:05:11;;;;;;;11.68;3.60;;;;;;;16.44;76.61;102116.16;7377527;19;19926;-65
2023/07/18 07:07:40;;;;;;;13.05;3.40;;;;;;;16.50;76.55;102120.88;7374970;19;19951;-66
2023/07/18 07:10:10;;;;;;;11.93;4.05;;;;;;;16.57;76.42;102116.41;7378515;19;19930;-68
2023/07/18 07:12:39;;;;;;;12.75;3.55;;;;;;;16.60;76.39;102115.22;7376683;19;19945;-68
2023/07/18 07:15:09;;;;;;;13.35;3.25;;;;;;;16.64;76.78;102114.66;7380693;19;19934;-66
2023/07/18 07:17:37;;;;;;;13.75;3.55;;;;;;;16.71;76.50;102114.75;7375895;19;19914;-66
2023/07/18 07:20:12;;;;;;;18.45;3.53;;;;;;;16.77;76.47;102116.72;7377987;19;19948;-66
2023/07/18 07:22:46;;;;;;;11.85;3.20;;;;;;;16.84;76.65;102119.53;7376605;19;19914;-67
2023/07/18 07:25:15;;;;;;;9.95;3.10;;;;;;;16.86;76.54;102115.59;7373312;19;20329;-67
2023/07/18 07:27:44;;;;;;;12.73;3.28;;;;;;;16.91;76.45;102115.88;7379561;19;20273;-67
2023/07/18 07:30:15;;;;;;;11.27;4.35;;;;;;;16.95;76.48;102116.34;7375091;19;19915;-66
2023/07/18 07:32:44;;;;;;;12.40;3.45;;;;;;;16.99;76.35;102107.63;7379649;19;19997;-66
2023/07/18 07:35:16;;;;;;;11.20;3.88;;;;;;;17.09;76.79;102105.44;7376424;19;19940;-66
2023/07/18 07:37:44;;;;;;;13.52;4.15;;;;;;;17.17;76.85;102099.88;7384886;19;20102;-66
2023/07/18 07:40:14;;;;;;;8.73;3.42;;;;;;;17.22;76.37;102102.88;7374108;19;19918;-67
2023/07/18 07:42:44;;;;;;;14.82;4.00;;;;;;;17.19;76.44;102095.09;7375308;19;19930;-66
2023/07/18 07:45:13;;;;;;;22.23;4.18;;;;;;;17.22;77.01;102091.97;7376751;19;23020;-66
2023/07/18 07:47:41;;;;;;;14.93;3.90;;;;;;;17.32;77.25;102090.84;7376048;19;19922;-67
2023/07/18 07:50:12;;;;;;;14.35;3.63;;;;;;;17.45;76.75;102088.25;7375105;19;19982;-66
2023/07/18 07:52:45;;;;;;;10.82;3.60;;;;;;;17.65;75.81;102100.25;7375240;19;19933;-68
2023/07/18 07:55:14;;;;;;;11.45;3.60;;;;;;;17.84;75.33;102090.59;7377448;19;19923;-68
2023/07/18 07:57:44;;;;;;;15.05;3.47;;;;;;;17.92;75.30;102094.03;7377968;19;20313;-67
2023/07/18 08:00:14;;;;;;;8.68;3.40;;;;;;;17.94;74.97;102100.16;7379897;19;19922;-67
2023/07/18 08:02:42;;;;;;;14.32;3.97;;;;;;;17.95;74.83;102093.63;7383826;19;20539;-67
2023/07/18 08:05:11;;;;;;;13.40;3.60;;;;;;;18.08;74.97;102101.09;7385744;19;19927;-66
2023/07/18 08:07:41;;;;;;;11.98;3.83;;;;;;;18.25;74.86;102096.22;7370847;19;19926;-67
2023/07/18 08:10:13;;;;;;;15.77;3.58;;;;;;;18.33;74.06;102099.66;7376394;19;19943;-67
2023/07/18 08:12:41;;;;;;;11.25;3.38;;;;;;;18.36;73.92;102101.13;7375139;19;19934;-67
2023/07/18 08:15:11;;;;;;;10.00;3.00;;;;;;;18.43;73.63;102096.53;7376423;19;20364;-67
2023/07/18 08:17:39;;;;;;;9.82;3.45;;;;;;;18.45;73.92;102095.31;7376044;19;20979;-67
2023/07/18 08:20:12;;;;;;;9.48;3.00;;;;;;;18.50;72.67;102097.47;7374971;19;19929;-68
2023/07/18 08:22:41;;;;;;;14.18;3.85;;;;;;;18.50;73.14;102102.91;7375804;19;19937;-68
2023/07/18 08:25:13;;;;;;;13.68;3.08;;;;;;;18.49;73.17;102095.75;7376413;19;19926;-67
2023/07/18 08:27:42;;;;;;;7.60;2.45;;;;;;;18.50;73.11;102102.91;7372825;19;19997;-66
2023/07/18 08:30:14;;;;;;;10.95;2.53;;;;;;;18.50;72.73;102086.53;7373631;19;19919;-66
2023/07/18 08:32:43;;;;;;;9.43;3.58;;;;;;;18.54;72.05;102085.13;7376404;19;19922;-66
2023/07/18 08:35:12;;;;;;;9.88;2.47;;;;;;;18.59;72.16;102086.19;7376189;19;19924;-65
2023/07/18 08:37:41;;;;;;;7.80;2.00;;;;;;;18.63;70.51;102081.22;7374975;19;19994;-67
2023/07/18 08:40:15;;;;;;;4.25;1.70;;;;;;;18.66;68.30;102086.25;7374158;19;20873;-67
2023/07/18 08:42:45;;;;;;;6.05;1.73;;;;;;;18.66;68.95;102080.78;7376261;19;19922;-67
2023/07/18 08:45:16;;;;;;;4.80;1.63;;;;;;;18.66;67.93;102082.69;7378368;19;19937;-66
2023/07/18 08:47:45;;;;;;;9.60;1.83;;;;;;;18.69;67.13;102079.53;7374227;19;19923;-66
2023/07/18 08:50:14;;;;;;;5.75;1.70;;;;;;;18.75;67.42;102076.84;7374180;19;19934;-67
2023/07/18 08:52:43;;;;;;;7.15;2.35;;;;;;;18.86;67.03;102076.28;7392047;19;19990;-67
2023/07/18 08:55:14;;;;;;;9.90;2.10;;;;;;;18.92;64.73;102067.28;7376680;19;19948;-67
2023/07/18 08:57:44;;;;;;;5.18;1.38;;;;;;;18.94;66.19;102065.19;7372933;19;19926;-68
2023/07/18 09:00:14;;;;;;;9.07;2.20;;;;;;;18.98;66.24;102069.19;7375434;19;19929;-67
2023/07/18 09:02:43;;;;;;;4.95;1.40;;;;;;;19.00;65.46;102072.56;7383295;19;19935;-67
2023/07/18 09:05:30;;;;;;;5.13;1.73;;;;;;;18.91;62.86;102068.31;7374146;19;19914;-68
2023/07/18 09:07:59;;;;;;;2.70;1.17;;;;;;;19.03;64.60;102060.38;7372059;19;19922;-68
2023/07/18 09:10:31;;;;;;;6.90;1.40;;;;;;;19.12;64.77;102056.44;7378263;19;20598;-65
2023/07/18 09:13:03;;;;;;;9.30;1.92;;;;;;;19.18;64.00;102052.06;7374181;19;20191;-67
2023/07/18 09:15:34;;;;;;;5.50;1.27;;;;;;;19.26;64.24;102051.88;7375882;19;19933;-68
2023/07/18 09:18:05;;;;;;;5.18;1.13;;;;;;;19.28;63.47;102038.84;7375012;19;21121;-68
2023/07/18 09:20:34;;;;;;;4.97;1.33;;;;;;;19.39;63.19;102044.56;7375084;19;20246;-67
2023/07/18 09:23:04;;;;;;;8.15;1.83;;;;;;;19.42;63.17;102037.81;7373930;19;19930;-67
2023/07/18 09:25:42;;;;;;;6.63;1.48;;;;;;;19.52;63.68;102032.84;7374090;19;19918;-67
2023/07/18 09:28:13;;;;;;;5.07;1.55;;;;;;;19.71;63.46;102040.25;7372973;19;19923;-67
2023/07/18 09:30:42;;;;;;;;;;;;;;;19.81;62.37;102034.34;7362184;19;19933;-66
2023/07/18 09:33:10;;;;;;;4.20;1.30;;;;;;;20.04;62.76;102032.03;7353126;19;19954;-66
2023/07/18 09:35:42;;;;;;;4.40;1.52;;;;;;;20.02;61.80;102033.31;7360127;19;19926;-67
2023/07/18 09:38:12;;;;;;;6.55;1.60;;;;;;;20.06;61.07;102032.69;7351282;19;19926;-67
2023/07/18 09:40:44;;;;;;;7.20;2.00;;;;;;;20.24;60.31;102034.75;7357145;19;19930;-66
2023/07/18 09:43:14;;;;;;;7.97;1.60;;;;;;;20.46;61.52;102036.22;7355784;19;19958;-66
2023/07/18 09:45:44;;;;;;;8.40;2.50;;;;;;;20.60;62.02;102040.63;7353797;19;19930;-67
2023/07/18 09:48:13;;;;;;;6.32;1.73;;;;;;;20.84;61.19;102039.06;7351772;19;19931;-67
2023/07/18 09:50:47;;;;;;;6.75;1.83;;;;;;;20.86;61.51;102034.22;7352683;19;19974;-66
2023/07/18 09:53:18;;;;;;;4.85;1.58;;;;;;;20.86;59.21;102033.38;7353820;19;20013;-67
2023/07/18 09:55:50;;;;;;;8.52;1.70;;;;;;;20.72;59.81;102035.31;7353966;19;19922;-67
2023/07/18 09:58:25;;;;;;;5.93;1.60;;;;;;;20.65;60.75;102035.34;7356936;19;19929;-66
2023/07/18 10:00:55;;;;;;;9.27;1.92;;;;;;;20.53;60.42;102034.31;7364864;19;19919;-66
2023/07/18 10:03:25;;;;;;;4.47;1.60;;;;;;;20.46;61.34;102028.00;7375270;19;19926;-66
2023/07/18 10:05:54;;;;;;;4.28;1.65;;;;;;;20.40;61.46;102028.88;7370889;19;19918;-66
2023/07/18 10:08:23;;;;;;;8.00;1.65;;;;;;;20.45;61.82;102029.06;7370135;19;22438;-67
2023/07/18 10:11:07;;;;;;;6.47;1.55;;;;;;;20.44;61.15;102034.75;7374657;19;19947;-68
2023/07/18 10:13:43;;;;;;;5.85;1.98;;;;;;;20.60;61.82;102024.19;7366139;19;19923;-67
2023/07/18 10:16:19;;;;;;;7.35;2.08;;;;;;;20.55;60.22;102023.13;7369836;19;19925;-67
2023/07/18 10:18:48;;;;;;;8.32;1.70;;;;;;;20.46;61.29;102022.53;7372830;19;20599;-67
2023/07/18 10:21:31;;;;;;;8.77;1.67;;;;;;;20.31;60.48;102014.56;7372941;19;19959;-67
2023/07/18 10:24:00;;;;;;;5.50;1.50;;;;;;;20.28;61.89;102014.09;7369245;19;19918;-67
2023/07/18 10:26:36;;;;;;;7.38;1.50;;;;;;;20.16;61.78;102005.72;7370661;19;19914;-67
2023/07/18 10:29:06;;;;;;;5.32;1.35;;;;;;;20.12;62.23;102006.34;7373506;19;19957;-67
2023/07/18 10:31:37;;;;;;;6.22;1.60;;;;;;;20.00;62.21;102008.03;7369840;19;19922;-68
2023/07/18 10:34:11;;;;;;;9.50;1.73;;;;;;;19.95;62.45;102011.41;7371946;19;20290;-67
2023/07/18 10:36:40;;;;;;;6.13;1.55;;;;;;;19.91;63.54;102005.53;7374840;19;20263;-68
2023/07/18 10:39:12;;;;;;;6.88;1.60;;;;;;;19.91;65.16;102000.06;7370627;19;19915;-67
2023/07/18 10:41:48;;;;;;;6.25;1.63;;;;;;;19.90;67.43;102000.25;7368930;19;19923;-67
2023/07/18 10:44:17;;;;;;;10.75;2.42;;;;;;;19.92;65.72;101992.69;7370154;19;19943;-67
2023/07/18 10:46:46;;;;;;;10.00;2.10;;;;;;;19.96;65.85;101993.09;7370658;19;19952;-67
2023/07/18 10:49:14;;;;;;;7.75;2.42;;;;;;;19.94;65.10;101977.75;7370598;19;19947;-68
2023/07/18 10:51:43;;;;;;;9.52;2.00;;;;;;;19.96;64.50;101973.97;7374703;19;23214;-66
2023/07/18 10:54:12;;;;;;;11.02;3.20;;;;;;;20.01;65.80;101982.38;7371658;19;19923;-67
2023/07/18 10:56:40;;;;;;;7.43;2.22;;;;;;;20.07;65.76;101978.78;7369069;19;19940;-67
2023/07/18 10:59:15;;;;;;;9.43;1.90;;;;;;;20.19;64.90;101971.63;7375581;19;19926;-66
2023/07/18 11:01:44;;;;;;;6.65;1.67;;;;;;;20.41;64.21;101967.56;7385997;19;19926;-67
2023/07/18 11:04:13;;;;;;;6.15;1.80;;;;;;;20.61;63.63;101962.06;7376998;19;19922;-67
2023/07/18 11:06:50;;;;;;;10.07;2.35;;;;;;;20.91;63.27;101957.69;7374110;19;19922;-67
2023/07/18 11:09:19;;;;;;;8.15;1.80;;;;;;;20.99;63.40;101942.91;7380277;19;19927;-67
2023/07/18 11:11:47;;;;;;;5.35;1.42;;;;;;;21.21;62.00;101949.75;7376870;19;19922;-68
2023/07/18 11:14:19;;;;;;;18.33;5.15;;;;;;;21.19;59.42;101949.97;7377646;19;19918;-67
2023/07/18 11:16:47;;;;;;;8.85;2.38;;;;;;;21.17;61.02;101940.28;7372949;19;19927;-66
2023/07/18 11:19:16;;;;;;;5.00;1.42;;;;;;;21.18;60.59;101942.78;7377883;19;20339;-68
2023/07/18 11:21:45;;;;;;;5.45;1.60;;;;;;;21.24;60.87;101938.34;7376282;19;19922;-68
2023/07/18 11:24:14;;;;;;;6.85;1.70;;;;;;;21.22;60.05;101927.63;7370151;19;20271;-68
2023/07/18 11:26:43;;;;;;;3.78;1.73;;;;;;;21.26;59.38;101933.50;7377569;19;19956;-68
2023/07/18 11:29:12;;;;;;;3.65;1.48;;;;;;;21.41;59.25;101920.28;7373631;19;20289;-68
2023/07/18 11:31:43;;;;;;;9.23;1.67;;;;;;;21.37;56.79;101926.44;7370701;19;20688;-68
2023/07/18 11:34:12;;;;;;;5.22;1.45;;;;;;;21.27;58.22;101924.19;7368413;19;19927;-67
2023/07/18 11:36:42;;;;;;;9.38;1.90;;;;;;;21.17;58.48;101926.59;7374166;19;19926;-67